createdAt,value
2022-10-28T00:03:07.973Z,15.43
2022-10-28T00:08:09.709Z,23.95
2022-10-28T00:13:11.182Z,20.10
2022-10-28T00:18:12.760Z,18.90
2022-10-28T00:23:14.237Z,19.67
2022-10-28T00:28:15.677Z,22.13
2022-10-28T00:33:17.134Z,24.60
2022-10-28T00:38:18.614Z,22.17
2022-10-28T00:43:33.946Z,18.65
2022-10-28T00:48:41.229Z,20.30
2022-10-28T00:53:44.684Z,21.05
2022-10-28T00:58:49.736Z,21.48
2022-10-28T01:03:51.718Z,21.63
2022-10-28T01:08:57.535Z,23.05
2022-10-28T01:14:52.732Z,20.20
2022-10-28T01:20:19.728Z,25.08
2022-10-28T01:26:09.093Z,19.80
2022-10-28T01:31:43.816Z,20.67
2022-10-28T01:37:16.907Z,17.48
2022-10-28T01:42:30.557Z,18.60
2022-10-28T01:47:38.676Z,24.77
2022-10-28T01:52:42.294Z,28.83
2022-10-28T01:57:44.429Z,18.92
2022-10-28T02:02:48.022Z,25.73
2022-10-28T02:07:54.614Z,23.67
2022-10-28T02:12:57.477Z,24.67
2022-10-28T02:18:39.301Z,21.23
2022-10-28T02:23:52.667Z,26.83
2022-10-28T02:29:03.148Z,20.80
2022-10-28T02:34:09.387Z,26.90
2022-10-28T02:39:11.147Z,28.25
2022-10-28T02:44:17.987Z,25.52
2022-10-28T02:49:19.894Z,26.33
2022-10-28T02:54:28.264Z,24.88
2022-10-28T02:59:29.912Z,19.60
2022-10-28T03:04:31.584Z,25.38
2022-10-28T03:09:33.039Z,23.92
2022-10-28T03:14:34.525Z,22.38
2022-10-28T03:19:36.070Z,26.50
2022-10-28T03:24:37.556Z,32.15
2022-10-28T03:29:43.335Z,24.83
2022-10-28T03:34:47.511Z,21.75
2022-10-28T03:39:49.003Z,25.17
2022-10-28T03:44:50.491Z,22.52
2022-10-28T03:49:51.982Z,24.08
2022-10-28T03:54:53.476Z,21.60
2022-10-28T03:59:54.952Z,20.58
2022-10-28T04:04:56.431Z,22.42
2022-10-28T04:09:57.902Z,19.73
2022-10-28T04:14:59.402Z,22.95
2022-10-28T04:20:00.891Z,21.02
2022-10-28T04:25:02.430Z,28.45
2022-10-28T04:30:05.207Z,23.80
2022-10-28T04:35:07.320Z,19.40
2022-10-28T04:40:09.613Z,24.23
2022-10-28T04:45:11.329Z,29.30
2022-10-28T04:50:12.872Z,20.17
2022-10-28T04:55:14.359Z,25.80
2022-10-28T05:00:15.971Z,22.48
2022-10-28T05:05:18.269Z,21.65
2022-10-28T05:10:19.735Z,18.70
2022-10-28T05:15:21.200Z,17.65
2022-10-28T05:20:22.898Z,28.52
2022-10-28T05:25:24.403Z,30.08
2022-10-28T05:30:26.684Z,21.73
2022-10-28T05:35:29.217Z,26.95
2022-10-28T05:40:32.679Z,25.40
2022-10-28T05:45:34.154Z,21.10
2022-10-28T05:50:35.681Z,23.65
2022-10-28T05:55:37.157Z,21.55
2022-10-28T06:00:38.637Z,22.45
2022-10-28T06:05:45.780Z,23.02
2022-10-28T06:10:56.551Z,26.38
2022-10-28T06:15:58.064Z,25.52
2022-10-28T06:20:59.638Z,25.02
2022-10-28T06:26:03.207Z,19.05
2022-10-28T06:31:07.255Z,18.70
2022-10-28T06:36:08.710Z,24.73
2022-10-28T06:41:10.183Z,26.77
2022-10-28T06:46:11.664Z,19.05
2022-10-28T06:51:16.892Z,19.13
2022-10-28T06:56:18.646Z,19.88
2022-10-28T07:01:20.759Z,25.50
2022-10-28T07:06:22.319Z,21.08
2022-10-28T07:11:24.166Z,21.58
2022-10-28T07:16:25.688Z,17.05
2022-10-28T07:21:29.721Z,17.88
2022-10-28T07:26:31.231Z,20.27
2022-10-28T07:31:32.665Z,22.67
2022-10-28T07:36:34.112Z,19.70
2022-10-28T07:41:37.371Z,22.77
2022-10-28T07:46:38.834Z,17.48
2022-10-28T07:51:40.877Z,17.75
2022-10-28T07:56:42.380Z,17.05
2022-10-28T08:01:43.940Z,19.27
2022-10-28T08:06:45.687Z,19.35
2022-10-28T08:11:47.142Z,24.42
2022-10-28T08:16:48.604Z,17.38
2022-10-28T08:21:50.059Z,17.95
2022-10-28T08:26:51.650Z,18.40
2022-10-28T08:31:53.170Z,24.50
2022-10-28T08:36:55.503Z,20.52
2022-10-28T08:42:15.676Z,21.73
2022-10-28T08:47:32.522Z,30.90
2022-10-28T08:52:39.191Z,16.50
2022-10-28T08:57:49.273Z,26.20
2022-10-28T09:03:12.100Z,15.90
2022-10-28T09:08:23.475Z,22.92
2022-10-28T09:13:31.863Z,22.55
2022-10-28T09:18:51.049Z,20.55
2022-10-28T09:24:01.242Z,17.23
2022-10-28T09:29:26.354Z,27.83
2022-10-28T09:34:43.651Z,23.23
2022-10-28T09:40:00.235Z,14.85
2022-10-28T09:45:06.202Z,21.87
2022-10-28T09:50:17.348Z,24.60
2022-10-28T09:55:23.193Z,18.50
2022-10-28T10:00:24.867Z,17.85
2022-10-28T10:05:26.927Z,28.98
2022-10-28T10:10:34.933Z,26.90
2022-10-28T10:15:45.645Z,14.55
2022-10-28T10:20:50.816Z,25.65
2022-10-28T10:26:09.481Z,20.15
2022-10-28T10:31:31.719Z,20.48
2022-10-28T10:36:34.316Z,16.70
2022-10-28T10:41:41.540Z,18.27
2022-10-28T10:52:17.944Z,26.85
2022-10-28T10:57:22.242Z,17.27
2022-10-28T11:02:32.594Z,24.88
2022-10-28T11:07:34.607Z,19.13
2022-10-28T11:12:36.754Z,19.50
2022-10-28T11:17:38.236Z,27.25
2022-10-28T11:22:58.517Z,20.23
2022-10-28T11:28:26.650Z,19.70
2022-10-28T11:33:51.547Z,24.85
2022-10-28T11:39:28.128Z,19.40
2022-10-28T11:44:52.174Z,24.63
2022-10-28T11:50:05.427Z,19.73
2022-10-28T11:55:38.194Z,21.33
2022-10-28T12:01:04.069Z,21.27
2022-10-28T12:06:26.484Z,26.65
2022-10-28T12:11:42.821Z,19.95
2022-10-28T12:16:56.196Z,19.67
2022-10-28T12:22:08.988Z,22.73
2022-10-28T12:27:42.433Z,19.63
2022-10-28T12:32:45.501Z,21.90
2022-10-28T12:37:50.080Z,23.10
2022-10-28T12:43:09.394Z,19.55
2022-10-28T12:48:42.429Z,20.10
2022-10-28T12:53:56.235Z,35.03
2022-10-28T12:59:06.484Z,22.42
2022-10-28T13:04:12.741Z,26.85
2022-10-28T13:09:20.368Z,27.70
2022-10-28T13:14:40.932Z,25.98
2022-10-28T13:20:19.523Z,19.90
2022-10-28T13:25:45.797Z,25.92
2022-10-28T13:31:15.410Z,22.50
2022-10-28T13:36:22.607Z,22.50
2022-10-28T13:41:34.883Z,25.23
2022-10-28T13:47:22.526Z,16.98
2022-10-28T13:52:24.229Z,23.02
2022-10-28T13:57:47.315Z,22.83
2022-10-28T14:02:55.571Z,23.02
2022-10-28T14:08:03.034Z,25.20
2022-10-28T14:13:20.366Z,22.88
2022-10-28T14:23:45.056Z,22.80
2022-10-28T14:28:50.897Z,22.17
2022-10-28T14:33:55.070Z,20.88
2022-10-28T14:39:19.993Z,18.33
2022-10-28T14:44:24.122Z,24.23
2022-10-28T14:49:29.924Z,18.25
2022-10-28T14:54:42.413Z,20.63
2022-10-28T14:59:45.412Z,24.35
2022-10-28T15:05:00.360Z,26.08
2022-10-28T15:10:21.569Z,21.23
2022-10-28T15:15:26.011Z,25.58
2022-10-28T15:20:29.200Z,25.25
2022-10-28T15:25:30.729Z,33.63
2022-10-28T15:30:34.577Z,24.90
2022-10-28T15:35:40.485Z,27.88
2022-10-28T15:40:41.994Z,27.27
2022-10-28T15:45:43.493Z,26.90
2022-10-28T15:50:45.033Z,34.97
2022-10-28T16:01:39.649Z,26.80
2022-10-28T16:06:41.321Z,25.90
2022-10-28T16:11:52.724Z,39.30
2022-10-28T16:16:54.236Z,22.27
2022-10-28T16:21:56.190Z,28.27
2022-10-28T16:27:17.918Z,24.85
2022-10-28T16:32:28.781Z,32.85
2022-10-28T16:37:32.788Z,33.45
2022-10-28T16:42:36.648Z,23.98
2022-10-28T16:47:38.114Z,35.13
2022-10-28T16:52:39.677Z,21.55
2022-10-28T16:57:41.154Z,24.70
2022-10-28T17:02:43.076Z,32.63
2022-10-28T17:07:44.708Z,30.60
2022-10-28T17:12:46.438Z,25.40
2022-10-28T17:17:52.872Z,34.08
2022-10-28T17:22:54.767Z,31.00
2022-10-28T17:27:57.002Z,26.30
2022-10-28T17:32:58.869Z,27.38
2022-10-28T17:38:00.371Z,28.08
2022-10-28T17:43:01.881Z,33.28
2022-10-28T17:48:03.495Z,25.30
2022-10-28T17:53:04.954Z,33.35
2022-10-28T17:58:06.415Z,37.95
2022-10-28T18:03:10.016Z,34.80
2022-10-28T18:08:11.557Z,36.78
2022-10-28T18:13:13.040Z,31.33
2022-10-28T18:18:14.600Z,27.27
2022-10-28T18:23:16.125Z,35.90
2022-10-28T18:28:17.777Z,32.60
2022-10-28T18:33:19.344Z,41.80
2022-10-28T18:38:20.803Z,34.30
2022-10-28T18:43:23.037Z,30.73
2022-10-28T18:48:24.507Z,34.38
2022-10-28T18:53:26.921Z,26.63
2022-10-28T18:58:28.708Z,30.42
2022-10-28T19:03:31.248Z,34.75
2022-10-28T19:08:33.013Z,28.00
2022-10-28T19:13:37.054Z,37.50
2022-10-28T19:18:38.845Z,30.63
2022-10-28T19:23:40.908Z,36.85
2022-10-28T19:28:44.744Z,29.55
2022-10-28T19:33:46.443Z,29.75
2022-10-28T19:38:49.640Z,28.55
2022-10-28T19:43:58.160Z,33.65
2022-10-28T19:49:04.445Z,29.40
2022-10-28T19:54:09.837Z,34.65
2022-10-28T19:59:11.325Z,33.83
2022-10-28T20:04:12.821Z,35.88
2022-10-28T20:09:14.276Z,39.75
2022-10-28T20:14:15.929Z,29.58
2022-10-28T20:19:18.437Z,29.75
2022-10-28T20:24:20.406Z,41.47
2022-10-28T20:29:21.873Z,47.80
2022-10-28T20:34:23.463Z,41.90
2022-10-28T20:39:26.102Z,37.45
2022-10-28T20:44:27.622Z,43.00
2022-10-28T20:49:29.083Z,41.83
2022-10-28T20:54:30.553Z,40.08
2022-10-28T20:59:32.003Z,37.55
2022-10-28T21:04:33.642Z,45.10
2022-10-28T21:09:35.086Z,51.90
2022-10-28T21:14:36.557Z,52.60
2022-10-28T21:19:38.013Z,48.70
2022-10-28T21:24:39.499Z,51.15
2022-10-28T21:29:41.043Z,47.92
2022-10-28T21:34:42.571Z,53.50
2022-10-28T21:39:44.516Z,48.65
2022-10-28T21:44:45.990Z,38.38
2022-10-28T21:49:47.502Z,43.92
2022-10-28T21:54:48.956Z,41.70
2022-10-28T21:59:50.428Z,36.10
2022-10-28T22:04:51.886Z,35.15
2022-10-28T22:09:53.372Z,40.35
2022-10-28T22:14:54.856Z,37.72
2022-10-28T22:19:56.705Z,32.03
2022-10-28T22:24:58.183Z,43.50
2022-10-28T22:29:59.654Z,38.40
2022-10-28T22:35:01.106Z,36.13
2022-10-28T22:40:02.572Z,35.15
2022-10-28T22:45:04.300Z,44.72
2022-10-28T22:50:05.926Z,35.88
2022-10-28T22:55:07.591Z,41.63
2022-10-28T23:00:10.281Z,38.45
2022-10-28T23:05:11.794Z,31.85
2022-10-28T23:10:13.435Z,32.13
2022-10-28T23:15:15.002Z,34.63
2022-10-28T23:20:21.097Z,40.72
2022-10-28T23:25:22.714Z,38.67
2022-10-28T23:30:24.228Z,45.35
2022-10-28T23:35:25.839Z,43.17
2022-10-28T23:40:27.304Z,36.05
2022-10-28T23:45:28.798Z,44.13
2022-10-28T23:50:30.301Z,36.50
2022-10-28T23:55:31.856Z,34.35
